Flight Track Log - Related Links

Times and Time Zones

All times are in EDT time to prevent confusion due to time zone crossing. See the RPA3291 flight status page for this flight to view local times or setup timezone preferences in your user account.

Time Position Orientation Groundspeed Altitude Reporting Facility
EDT Latitude Longitude Course Direction KTS MPH feet Rate Location/Type
Wed 05:14:23 PM 42.1994 -83.3581 90° East 152 175 1,300  Level Cleveland Center
Wed 05:15:54 PM 42.1217 -83.3828 193° South 244 281 4,000 2,289 Climbing Cleveland Center
Wed 05:16:55 PM 42.0483 -83.4019 191° South 273 314 7,100 2,903 Climbing Cleveland Center
Wed 05:17:00 PM 42.2167 -82.7720 90° East  Level FlightAware Approximate
Wed 05:17:58 PM 41.9739 -83.3789 167° South 307 353 10,000  Level Cleveland Center
Wed 05:18:00 PM 42.2167 -82.6263 90° East  Level FlightAware Approximate
Wed 05:18:58 PM 41.9869 -83.2650 81° East 289 333 12,200  Level Cleveland Center
Wed 05:19:00 PM 42.2167 -82.4806 90° East  Level FlightAware Approximate
Wed 05:19:58 PM 42.0189 -83.1489 70° East 289 333 14,500  Level Cleveland Center
Wed 05:20:58 PM 42.0547 -83.0272 68° East 318 366 16,800 1,250 Climbing Cleveland Center
Wed 05:21:58 PM 42.0906 -82.9111 67° East 338 389 17,000 750 Climbing Cleveland Center
Wed 05:22:58 PM 42.1264 -82.7864 69° East 351 404 18,300 1,750 Climbing Cleveland Center
Wed 05:23:58 PM 42.1642 -82.6561 69° East 358 412 20,500 2,000 Climbing Cleveland Center
Wed 05:24:58 PM 42.2019 -82.5200 69° East 370 426 22,300 1,950 Climbing Cleveland Center
Wed 05:25:58 PM 42.2169 -82.3719 82° East 376 433 24,400 1,350 Climbing Cleveland Center
Wed 05:26:58 PM 42.2069 -82.2147 95° East 398 458 25,000 700 Climbing Cleveland Center
Wed 05:27:58 PM 42.1944 -82.0433 96° East 412 474 25,800 1,150 Climbing Cleveland Center
Wed 05:28:58 PM 42.1547 -81.8967 110° East 411 473 27,300 1,350 Climbing Cleveland Center
Wed 05:29:58 PM 42.0558 -81.7828 139° Southeast 432 497 28,500 1,300 Climbing Cleveland Center
Wed 05:30:58 PM 41.9611 -81.6722 139° Southeast 449 517 29,900 1,250 Climbing Cleveland Center
Wed 05:31:58 PM 41.8642 -81.5589 139° Southeast 459 528 31,000 550 Climbing Cleveland Center
Wed 05:32:58 PM 41.7692 -81.4517 140° Southeast 459 528 31,000  Level Cleveland Center
Wed 05:33:58 PM 41.6822 -81.3533 140° Southeast 459 528 31,000  Level Cleveland Center
Wed 05:34:58 PM 41.5828 -81.2411 140° Southeast 459 528 31,000  Level Cleveland Center
Wed 05:35:58 PM 41.4917 -81.1264 137° Southeast 454 522 31,000  Level Cleveland Center
Wed 05:36:58 PM 41.4047 -81.0067 134° Southeast 454 522 31,000  Level Cleveland Center
Wed 05:37:58 PM 41.3092 -80.8733 134° Southeast 454 522 31,000  Level Cleveland Center
Wed 05:38:58 PM 41.2219 -80.7542 134° Southeast 454 522 31,000  Level Cleveland Center
Wed 05:39:58 PM 41.1344 -80.6356 134° Southeast 448 516 31,000  Level Cleveland Center
Wed 05:40:58 PM 41.0594 -80.5281 133° Southeast 448 516 31,000  Level Cleveland Center
Wed 05:41:58 PM 40.9739 -80.4097 134° Southeast 448 516 31,000  Level Cleveland Center
Wed 05:42:58 PM 40.8839 -80.2892 135° Southeast 448 516 31,000  Level Cleveland Center
Wed 05:43:58 PM 40.7981 -80.1497 129° Southeast 443 510 31,000  Level Cleveland Center
Wed 05:44:58 PM 40.7475 -80.0019 114° Southeast 443 510 31,000  Level Cleveland Center
Wed 05:45:58 PM 40.7008 -79.8628 114° Southeast 443 510 31,000  Level Cleveland Center
Wed 05:46:58 PM 40.6456 -79.7156 116° Southeast 448 516 31,000  Level Cleveland Center
Wed 05:47:58 PM 40.5964 -79.5658 113° Southeast 448 516 31,000  Level Cleveland Center
Wed 05:48:58 PM 40.5758 -79.3994 99° East 448 516 31,000  Level Cleveland Center
Wed 05:49:58 PM 40.5553 -79.2358 99° East 448 516 31,000  Level Cleveland Center
Wed 05:50:58 PM 40.5386 -79.0722 98° East 448 516 31,000 -100 Level Cleveland Center
Wed 05:51:58 PM 40.5197 -78.9089 99° East 448 516 30,800 -850 Descending Cleveland Center
Wed 05:52:58 PM 40.5003 -78.7292 98° East 465 535 29,300 -1,500 Descending Cleveland Center
Wed 05:53:58 PM 40.4783 -78.5442 99° East 491 565 27,800 -1,329 Descending Cleveland Center
Wed 05:55:27 PM 40.4472 -78.2608 98° East 495 570 26,000 -1,087 Descending New York Center
Wed 05:56:27 PM 40.4269 -78.0842 99° East 495 570 25,100 -504 Descending New York Center
Wed 05:57:26 PM 40.4044 -77.9044 99° East 489 563 25,000 -50 Descending New York Center
Wed 05:58:27 PM 40.3836 -77.7306 99° East 489 563 25,000 -610 Level New York Center
Wed 05:59:24 PM 40.3647 -77.5542 98° East 489 563 23,800 -1,220 Descending New York Center
Wed 06:00:25 PM 40.3428 -77.3886 100° East 483 556 22,600 -1,041 Descending New York Center
Wed 06:01:25 PM 40.3250 -77.2589 100° East 471 542 21,700 -1,100 Descending New York Center
Wed 06:02:25 PM 40.2983 -77.0578 100° East 465 535 20,400 -1,190 Descending New York Center
Wed 06:03:26 PM 40.2625 -76.9047 107° East 454 522 19,300 -1,140 Descending New York Center
Wed 06:04:26 PM 40.2289 -76.7494 106° East 447 514 18,100 -1,271 Descending New York Center
Wed 06:05:24 PM 40.1925 -76.6025 108° East 442 509 16,800 -1,059 Descending New York Center
Wed 06:06:25 PM 40.1614 -76.4719 107° East 426 490 16,000 -744 Descending New York Center
Wed 06:07:25 PM 40.1289 -76.3228 106° East 426 490 15,300 -942 Descending New York Center
Wed 06:08:26 PM 40.1131 -76.1694 98° East 405 466 14,100 -1,230 Descending New York Center
Wed 06:09:27 PM 40.1042 -76.0439 95° East 366 421 12,800 -1,636 Descending New York Center
Wed 06:10:27 PM 40.0958 -75.9456 96° East 320 368 10,800 -2,000 Descending New York Center
Wed 06:11:24 PM 40.0864 -75.8283 96° East 290 334 8,900 -1,412 Descending New York Center
Wed 06:12:26 PM 40.0800 -75.7328 95° East 295 339 8,000 -443 Descending New York Center
Wed 06:13:26 PM 40.0744 -75.6158 94° East 295 339 8,000  Level New York Center
Wed 06:14:27 PM 40.0700 -75.5206 93° East 295 339 8,000 -793 Level New York Center
Wed 06:15:27 PM 40.0642 -75.4061 94° East 295 339 6,400 -1,224 Descending New York Center
Wed 06:16:05 PM 40.0667 -75.3333 87° East 274 315 6,000 -233 Descending Philadelphia TRACON
Wed 06:17:10 PM 40.0500 -75.2333 102° East 269 310 6,000 -48 Level Philadelphia TRACON
Wed 06:18:10 PM 40.0333 -75.1500 105° East 197 227 5,900  Descending Philadelphia TRACON
Wed 06:19:05 PM 40.0333 -75.1000 90° East 187 215 6,000 -500 Climbing Philadelphia TRACON
Wed 06:20:10 PM 40.0167 -75.0167 105° East 186 214 4,900 -1,100 Descending Philadelphia TRACON
Wed 06:21:05 PM 39.9833 -74.9833 143° Southeast 185 213 3,800 -991 Descending Philadelphia TRACON
Wed 06:22:05 PM 39.9333 -74.9667 166° South 183 211 3,000 -450 Descending Philadelphia TRACON
Wed 06:23:05 PM 39.9167 -75.0333 252° West 173 199 2,900 -100 Descending Philadelphia TRACON

Login

Don't have an account? Register now (free) for customized features, flight alerts, and more!